QTR88L VOTV-OTHH
Flight info
| Callsign | QTR88L |
|---|---|
| Flight time | N/A |
| Altitude | 36000 |
| Route | DCT TVM P570 EMURU N563 SODEX DCT UMIBU P899 TOVOX TOVOX2P |
| Aircraft | A320/M-SDE3FGHIRWY/LB1 |
Departure
| Time | 2026-05-06 13:01 |
|---|---|
| Airport | Thiruvananthapuram International Airport (VOTV) |
Arrival
| Time | N/A |
|---|---|
| Airport | Hamad International Airport (OTHH) |
| Time | Latitude | Longitude | Altitude | Speed | Heading |
|---|---|---|---|---|---|
| 2026-05-06 12:31 | 8.47771 | 76.91920 | 23 ft | 0 kts | 188° |
| 2026-05-06 12:49 | 8.47776 | 76.91921 | 23 ft | 4 kts | 188° |
| 2026-05-06 12:49 | 8.47802 | 76.91924 | 23 ft | 4 kts | 186° |
| 2026-05-06 12:49 | 8.47829 | 76.91927 | 23 ft | 4 kts | 186° |
| 2026-05-06 12:49 | 8.47855 | 76.91930 | 23 ft | 2 kts | 187° |
| 2026-05-06 12:50 | 8.47878 | 76.91932 | 23 ft | 4 kts | 182° |
| 2026-05-06 12:50 | 8.47905 | 76.91931 | 23 ft | 4 kts | 171° |
| 2026-05-06 12:50 | 8.47930 | 76.91924 | 23 ft | 3 kts | 152° |
| 2026-05-06 12:50 | 8.47938 | 76.91920 | 23 ft | 0 kts | 150° |
| 2026-05-06 12:55 | 8.47936 | 76.91921 | 24 ft | 3 kts | 147° |
| 2026-05-06 12:55 | 8.47917 | 76.91960 | 25 ft | 9 kts | 100° |
| 2026-05-06 12:55 | 8.47910 | 76.92035 | 23 ft | 11 kts | 96° |
| 2026-05-06 12:55 | 8.47902 | 76.92102 | 26 ft | 9 kts | 96° |
| 2026-05-06 12:56 | 8.47896 | 76.92156 | 24 ft | 6 kts | 96° |
| 2026-05-06 12:56 | 8.47895 | 76.92168 | 24 ft | 0 kts | 96° |
| 2026-05-06 12:56 | 8.47894 | 76.92179 | 24 ft | 3 kts | 96° |
| 2026-05-06 12:57 | 8.47891 | 76.92213 | 27 ft | 7 kts | 96° |
| 2026-05-06 12:57 | 8.47884 | 76.92276 | 24 ft | 11 kts | 96° |
| 2026-05-06 12:57 | 8.47841 | 76.92352 | 26 ft | 14 kts | 134° |
| 2026-05-06 12:57 | 8.47759 | 76.92432 | 26 ft | 18 kts | 136° |
| 2026-05-06 12:58 | 8.47657 | 76.92533 | 26 ft | 23 kts | 136° |
| 2026-05-06 12:58 | 8.47539 | 76.92648 | 23 ft | 24 kts | 136° |
| 2026-05-06 12:58 | 8.47418 | 76.92767 | 21 ft | 24 kts | 136° |
| 2026-05-06 12:58 | 8.47323 | 76.92860 | 22 ft | 17 kts | 132° |
| 2026-05-06 12:59 | 8.47266 | 76.92953 | 22 ft | 14 kts | 105° |
| 2026-05-06 12:59 | 8.47237 | 76.93036 | 23 ft | 11 kts | 126° |
| 2026-05-06 12:59 | 8.47186 | 76.93081 | 22 ft | 7 kts | 160° |
| 2026-05-06 12:59 | 8.47150 | 76.93065 | 22 ft | 5 kts | 220° |
| 2026-05-06 13:00 | 8.47143 | 76.93030 | 24 ft | 5 kts | 287° |
| 2026-05-06 13:00 | 8.47173 | 76.93001 | 23 ft | 7 kts | 316° |
| 2026-05-06 13:00 | 8.47212 | 76.92962 | 22 ft | 10 kts | 316° |
| 2026-05-06 13:00 | 8.47415 | 76.92767 | 24 ft | 74 kts | 316° |
| 2026-05-06 13:01 | 8.47923 | 76.92272 | 24 ft | 127 kts | 316° |
| 2026-05-06 13:01 | 8.48665 | 76.91558 | 27 ft | 166 kts | 317° |
| 2026-05-06 13:01 | 8.49561 | 76.90705 | 316 ft | 183 kts | 317° |
| 2026-05-06 13:01 | 8.50493 | 76.89793 | 842 ft | 189 kts | 316° |
| 2026-05-06 13:02 | 8.51436 | 76.88838 | 1340 ft | 198 kts | 314° |
| 2026-05-06 13:02 | 8.52277 | 76.87638 | 1538 ft | 223 kts | 295° |
| 2026-05-06 13:02 | 8.52675 | 76.86063 | 1932 ft | 240 kts | 272° |
| 2026-05-06 13:02 | 8.52467 | 76.84360 | 2500 ft | 250 kts | 251° |
| 2026-05-06 13:03 | 8.51822 | 76.82681 | 3000 ft | 263 kts | 248° |
| 2026-05-06 13:03 | 8.51313 | 76.80892 | 3700 ft | 270 kts | 259° |
| 2026-05-06 13:03 | 8.51009 | 76.78996 | 4315 ft | 277 kts | 261° |
| 2026-05-06 13:03 | 8.50742 | 76.77065 | 4495 ft | 278 kts | 262° |
| 2026-05-06 13:04 | 8.50493 | 76.75130 | 4525 ft | 276 kts | 263° |
| 2026-05-06 13:04 | 8.50257 | 76.73210 | 4531 ft | 276 kts | 263° |
| 2026-05-06 13:04 | 8.50026 | 76.71288 | 4534 ft | 276 kts | 263° |
| 2026-05-06 13:04 | 8.49796 | 76.69367 | 4541 ft | 277 kts | 263° |
| 2026-05-06 13:05 | 8.49569 | 76.67445 | 4537 ft | 277 kts | 264° |
| 2026-05-06 13:05 | 8.49342 | 76.65519 | 4529 ft | 273 kts | 263° |
| 2026-05-06 13:05 | 8.49108 | 76.63610 | 4634 ft | 279 kts | 263° |
| 2026-05-06 13:05 | 8.48879 | 76.61664 | 5417 ft | 279 kts | 263° |
| 2026-05-06 13:06 | 8.48653 | 76.59704 | 6177 ft | 284 kts | 263° |
| 2026-05-06 13:06 | 8.48422 | 76.57713 | 6928 ft | 287 kts | 263° |
| 2026-05-06 13:06 | 8.48187 | 76.55736 | 7627 ft | 288 kts | 263° |
| 2026-05-06 13:06 | 8.47941 | 76.53714 | 8290 ft | 292 kts | 263° |
| 2026-05-06 13:07 | 8.47688 | 76.51671 | 8937 ft | 294 kts | 263° |
| 2026-05-06 13:07 | 8.47433 | 76.49610 | 9547 ft | 299 kts | 263° |
| 2026-05-06 13:07 | 8.47168 | 76.47502 | 10199 ft | 304 kts | 264° |
| 2026-05-06 13:07 | 8.46902 | 76.45335 | 10427 ft | 321 kts | 263° |
| 2026-05-06 13:08 | 8.46620 | 76.43033 | 10560 ft | 340 kts | 263° |
| 2026-05-06 13:08 | 8.46316 | 76.40617 | 10768 ft | 354 kts | 264° |
| 2026-05-06 13:08 | 8.46007 | 76.38136 | 11247 ft | 358 kts | 263° |
| 2026-05-06 13:08 | 8.45702 | 76.35629 | 11799 ft | 361 kts | 264° |
| 2026-05-06 13:09 | 8.45401 | 76.33103 | 12362 ft | 363 kts | 264° |
| 2026-05-06 13:09 | 8.45100 | 76.30563 | 12916 ft | 365 kts | 263° |
| 2026-05-06 13:09 | 8.44794 | 76.28009 | 13440 ft | 367 kts | 263° |
| 2026-05-06 13:09 | 8.44480 | 76.25437 | 13976 ft | 370 kts | 263° |
| 2026-05-06 13:10 | 8.44164 | 76.22855 | 14493 ft | 372 kts | 263° |
| 2026-05-06 13:10 | 8.43845 | 76.20252 | 15004 ft | 374 kts | 263° |
| 2026-05-06 13:10 | 8.43526 | 76.17637 | 15491 ft | 377 kts | 263° |
| 2026-05-06 13:10 | 8.43200 | 76.15003 | 15981 ft | 379 kts | 263° |
| 2026-05-06 13:11 | 8.42871 | 76.12363 | 16463 ft | 380 kts | 264° |
| 2026-05-06 13:11 | 8.42745 | 76.09695 | 16915 ft | 382 kts | 274° |
| 2026-05-06 13:11 | 8.43153 | 76.07043 | 17357 ft | 383 kts | 285° |
| 2026-05-06 13:11 | 8.44066 | 76.04517 | 17796 ft | 385 kts | 294° |
| 2026-05-06 13:12 | 8.45138 | 76.02034 | 18231 ft | 387 kts | 293° |
| 2026-05-06 13:12 | 8.46211 | 75.99532 | 18651 ft | 389 kts | 293° |
| 2026-05-06 13:12 | 8.47282 | 75.97015 | 19035 ft | 392 kts | 293° |
| 2026-05-06 13:12 | 8.48360 | 75.94476 | 19418 ft | 395 kts | 293° |
| 2026-05-06 13:13 | 8.49446 | 75.91915 | 19782 ft | 398 kts | 293° |
| 2026-05-06 13:13 | 8.50535 | 75.89341 | 20148 ft | 400 kts | 293° |
| 2026-05-06 13:13 | 8.51634 | 75.86751 | 20515 ft | 403 kts | 293° |
| 2026-05-06 13:13 | 8.52745 | 75.84139 | 20863 ft | 405 kts | 293° |
| 2026-05-06 13:14 | 8.53862 | 75.81516 | 21199 ft | 408 kts | 293° |
| 2026-05-06 13:14 | 8.54987 | 75.78871 | 21534 ft | 410 kts | 293° |
| 2026-05-06 13:14 | 8.56117 | 75.76213 | 21850 ft | 413 kts | 293° |
| 2026-05-06 13:14 | 8.57236 | 75.73578 | 22160 ft | 415 kts | 293° |
| 2026-05-06 13:15 | 8.58391 | 75.70861 | 22464 ft | 417 kts | 293° |
| 2026-05-06 13:15 | 8.59537 | 75.68161 | 22747 ft | 420 kts | 293° |
| 2026-05-06 13:15 | 8.60691 | 75.65443 | 23037 ft | 422 kts | 293° |
| 2026-05-06 13:15 | 8.61850 | 75.62709 | 23322 ft | 424 kts | 293° |
| 2026-05-06 13:16 | 8.63010 | 75.59967 | 23601 ft | 426 kts | 293° |
| 2026-05-06 13:16 | 8.64162 | 75.57243 | 23873 ft | 428 kts | 293° |
| 2026-05-06 13:16 | 8.64954 | 75.55376 | 24053 ft | 429 kts | 293° |
| 2026-05-06 13:16 | 8.66130 | 75.52595 | 24310 ft | 431 kts | 294° |
| 2026-05-06 13:17 | 8.67311 | 75.49806 | 24567 ft | 433 kts | 294° |
| 2026-05-06 13:17 | 8.68890 | 75.46086 | 24899 ft | 436 kts | 294° |
| 2026-05-06 13:17 | 8.70085 | 75.43265 | 25137 ft | 438 kts | 294° |
| 2026-05-06 13:17 | 8.71288 | 75.40424 | 25369 ft | 440 kts | 293° |
| 2026-05-06 13:18 | 8.72493 | 75.37572 | 25611 ft | 443 kts | 294° |
| 2026-05-06 13:18 | 8.73709 | 75.34700 | 25834 ft | 445 kts | 293° |
| 2026-05-06 13:18 | 8.74533 | 75.32756 | 25986 ft | 447 kts | 293° |
| 2026-05-06 13:18 | 8.75760 | 75.29860 | 26214 ft | 449 kts | 294° |
| 2026-05-06 13:19 | 8.76991 | 75.26958 | 26438 ft | 451 kts | 294° |
| 2026-05-06 13:19 | 8.78229 | 75.24037 | 26658 ft | 452 kts | 294° |
| 2026-05-06 13:19 | 8.79466 | 75.21117 | 26886 ft | 454 kts | 294° |
| 2026-05-06 13:19 | 8.80714 | 75.18165 | 27092 ft | 456 kts | 294° |
| 2026-05-06 13:20 | 8.81963 | 75.15213 | 27310 ft | 458 kts | 293° |
| 2026-05-06 13:20 | 8.83215 | 75.12248 | 27525 ft | 460 kts | 293° |
| 2026-05-06 13:20 | 8.84471 | 75.09263 | 27726 ft | 462 kts | 293° |
| 2026-05-06 13:20 | 8.85729 | 75.06274 | 27958 ft | 464 kts | 293° |
| 2026-05-06 13:21 | 8.86978 | 75.03305 | 28155 ft | 465 kts | 293° |
| 2026-05-06 13:21 | 8.88246 | 75.00296 | 28411 ft | 466 kts | 293° |
| 2026-05-06 13:21 | 8.89521 | 74.97286 | 28730 ft | 465 kts | 294° |
| 2026-05-06 13:21 | 8.90792 | 74.94287 | 29034 ft | 464 kts | 294° |
| 2026-05-06 13:22 | 8.92060 | 74.91287 | 29332 ft | 464 kts | 293° |
| 2026-05-06 13:22 | 8.93322 | 74.88280 | 29629 ft | 464 kts | 293° |
| 2026-05-06 13:22 | 8.94586 | 74.85270 | 29942 ft | 464 kts | 293° |
| 2026-05-06 13:22 | 8.95848 | 74.82274 | 30252 ft | 463 kts | 293° |
| 2026-05-06 13:23 | 8.97110 | 74.79281 | 30568 ft | 463 kts | 293° |
| 2026-05-06 13:23 | 8.98376 | 74.76283 | 30858 ft | 463 kts | 293° |
| 2026-05-06 13:23 | 8.99638 | 74.73282 | 31150 ft | 463 kts | 293° |
| 2026-05-06 13:23 | 9.00897 | 74.70287 | 31465 ft | 463 kts | 293° |
| 2026-05-06 13:24 | 9.02158 | 74.67287 | 31781 ft | 463 kts | 293° |
| 2026-05-06 13:24 | 9.03416 | 74.64297 | 32085 ft | 463 kts | 293° |
| 2026-05-06 13:24 | 9.04676 | 74.61308 | 32391 ft | 462 kts | 293° |
| 2026-05-06 13:24 | 9.05938 | 74.58312 | 32681 ft | 462 kts | 292° |
| 2026-05-06 13:25 | 9.07197 | 74.55323 | 32961 ft | 462 kts | 292° |
| 2026-05-06 13:25 | 9.08455 | 74.52326 | 33242 ft | 462 kts | 292° |
| 2026-05-06 13:25 | 9.09709 | 74.49334 | 33508 ft | 462 kts | 292° |
| 2026-05-06 13:25 | 9.10966 | 74.46336 | 33753 ft | 463 kts | 292° |
| 2026-05-06 13:26 | 9.12220 | 74.43344 | 34020 ft | 462 kts | 292° |
| 2026-05-06 13:26 | 9.13472 | 74.40354 | 34287 ft | 462 kts | 292° |
| 2026-05-06 13:26 | 9.14727 | 74.37360 | 34549 ft | 462 kts | 292° |
| 2026-05-06 13:26 | 9.15982 | 74.34367 | 34792 ft | 461 kts | 292° |
| 2026-05-06 13:27 | 9.17237 | 74.31382 | 35039 ft | 461 kts | 292° |
| 2026-05-06 13:27 | 9.18495 | 74.28393 | 35291 ft | 461 kts | 292° |
| 2026-05-06 13:27 | 9.19748 | 74.25415 | 35524 ft | 460 kts | 292° |
| 2026-05-06 13:27 | 9.20999 | 74.22429 | 35729 ft | 460 kts | 292° |
| 2026-05-06 13:28 | 9.22248 | 74.19441 | 35792 ft | 463 kts | 292° |
| 2026-05-06 13:28 | 9.24791 | 74.13367 | 35791 ft | 473 kts | 292° |
| 2026-05-06 13:29 | 9.27369 | 74.07205 | 35790 ft | 476 kts | 292° |
| 2026-05-06 13:29 | 9.29959 | 74.01031 | 35793 ft | 476 kts | 292° |
| 2026-05-06 13:30 | 9.32540 | 73.94857 | 35790 ft | 476 kts | 292° |
| 2026-05-06 13:30 | 9.35119 | 73.88689 | 35795 ft | 476 kts | 292° |
| 2026-05-06 13:31 | 9.37697 | 73.82517 | 35800 ft | 476 kts | 292° |
| 2026-05-06 13:31 | 9.40276 | 73.76341 | 35805 ft | 476 kts | 292° |
| 2026-05-06 13:32 | 9.42848 | 73.70169 | 35808 ft | 476 kts | 292° |
| 2026-05-06 13:32 | 9.45408 | 73.64030 | 35809 ft | 476 kts | 292° |
| 2026-05-06 13:33 | 9.47989 | 73.57850 | 35809 ft | 476 kts | 292° |
| 2026-05-06 13:33 | 9.50555 | 73.51671 | 35809 ft | 476 kts | 292° |
| 2026-05-06 13:34 | 9.53125 | 73.45489 | 35809 ft | 476 kts | 292° |
| 2026-05-06 13:34 | 9.55701 | 73.39312 | 35809 ft | 476 kts | 292° |
| 2026-05-06 13:35 | 9.58271 | 73.33129 | 35810 ft | 476 kts | 292° |
| 2026-05-06 13:35 | 9.60840 | 73.26948 | 35811 ft | 476 kts | 292° |
| 2026-05-06 13:36 | 9.63403 | 73.20766 | 35811 ft | 476 kts | 292° |
| 2026-05-06 13:36 | 9.65963 | 73.14598 | 35812 ft | 475 kts | 292° |
| 2026-05-06 13:37 | 9.68525 | 73.08419 | 35811 ft | 475 kts | 292° |
| 2026-05-06 13:37 | 9.71082 | 73.02245 | 35810 ft | 475 kts | 292° |
| 2026-05-06 13:38 | 9.73643 | 72.96074 | 35809 ft | 475 kts | 292° |
| 2026-05-06 13:38 | 9.76202 | 72.89914 | 35809 ft | 474 kts | 292° |
| 2026-05-06 13:39 | 9.78752 | 72.83747 | 35810 ft | 474 kts | 292° |
| 2026-05-06 13:39 | 9.81297 | 72.77581 | 35811 ft | 474 kts | 292° |
| 2026-05-06 13:40 | 9.83829 | 72.71457 | 35811 ft | 474 kts | 292° |
| 2026-05-06 13:40 | 9.86375 | 72.65299 | 35811 ft | 473 kts | 292° |
| 2026-05-06 13:41 | 9.88925 | 72.59143 | 35811 ft | 473 kts | 292° |
| 2026-05-06 13:41 | 9.91465 | 72.52997 | 35811 ft | 472 kts | 292° |
| 2026-05-06 13:42 | 9.94071 | 72.46883 | 35805 ft | 472 kts | 298° |
| 2026-05-06 13:42 | 9.95886 | 72.44111 | 35803 ft | 471 kts | 310° |
| 2026-05-06 13:42 | 9.98186 | 72.41757 | 35803 ft | 471 kts | 322° |
| 2026-05-06 13:42 | 10.00897 | 72.39906 | 35802 ft | 469 kts | 333° |
| 2026-05-06 13:43 | 10.03892 | 72.38621 | 35797 ft | 468 kts | 344° |
| 2026-05-06 13:43 | 10.10250 | 72.37229 | 35792 ft | 467 kts | 349° |
| 2026-05-06 13:44 | 10.16631 | 72.35939 | 35789 ft | 468 kts | 349° |
| 2026-05-06 13:44 | 10.23020 | 72.34648 | 35792 ft | 469 kts | 349° |
| 2026-05-06 13:45 | 10.29414 | 72.33355 | 35799 ft | 469 kts | 349° |